Latest Weather Observations for Canterbury

IDN60901

Issued at 11:55 pm EDT Monday 20 October 2014 (issued every 10 minutes, with the page automatically refreshed every 10 minutes)

About weather observations | Map of Sydney area stations | Latest observations for Sydney area | Other Formats
Station Details ID: 066194 Name: CANTERBURY RACECOURSE AWS Lat: -33.91 Lon: 151.11 Height: 3.0 m
Data from the previous 72 hours. | See also: Recent months at Canterbury
Date/Time
EDT
Tmp

°C
App
Tmp
°C
Dew
Point
°C
Rel
Hum
%
Delta-T

°C
Wind Press
QNH
hPa
Press
MSL
hPa
Rain
since
9 am
mm
Dir
 
Spd
km/h
Gust
km/h
Spd
kts
Gust
kts
20/11:50pm 14.8 12.0 11.2 79 1.9 ESE 17 24 9 13 - - 0.0
20/11:30pm 15.6 12.3 11.0 74 2.5 SE 19 28 10 15 - - 0.0
20/11:28pm 15.5 12.3 11.1 75 2.3 SE 19 28 10 15 - - 0.0
20/11:18pm 15.9 12.1 11.3 74 2.5 SE 22 30 12 16 - - 0.0
20/11:00pm 16.4 14.1 10.5 68 3.1 E 13 17 7 9 - - 0.0
20/10:30pm 16.5 13.2 9.7 64 3.6 SE 17 24 9 13 - - 0.0
20/10:00pm 16.4 13.7 10.3 67 3.2 ESE 15 24 8 13 - - 0.0
20/09:30pm 16.2 13.7 10.9 71 2.8 SE 15 19 8 10 - - 0.0
20/09:00pm 16.2 12.7 10.9 71 2.8 S 20 30 11 16 - - 0.0
20/08:30pm 16.5 14.2 10.6 68 3.1 ESE 13 19 7 10 - - 0.0
20/08:00pm 16.5 14.3 10.8 69 3.0 SE 13 19 7 10 - - 0.0
20/07:30pm 16.8 13.8 10.6 67 3.3 SSE 17 24 9 13 - - 0.0
20/07:00pm 16.9 13.5 9.3 61 3.9 SSE 17 26 9 14 - - 0.0
20/06:30pm 16.9 13.4 10.3 65 3.5 SSE 19 30 10 16 - - 0.0
20/06:00pm 17.1 13.3 9.8 62 3.8 SSE 20 32 11 17 - - 0.0
20/05:30pm 16.9 13.6 9.6 62 3.8 SSE 17 26 9 14 - - 0.0
20/05:00pm 17.3 13.6 10.2 63 3.8 SSE 20 33 11 18 - - 0.0
20/04:30pm 16.8 12.8 10.4 66 3.4 SSE 22 37 12 20 - - 0.0
20/04:00pm 17.1 13.6 10.9 67 3.3 SSE 20 32 11 17 - - 0.0
20/03:30pm 17.3 13.5 11.3 68 3.2 SE 22 33 12 18 - - 0.0
20/03:00pm 16.7 13.2 10.8 68 3.2 S 20 32 11 17 - - 0.0
20/02:30pm 17.1 13.8 11.6 70 3.0 S 20 33 11 18 - - 0.0
20/02:08pm 17.0 14.0 12.1 73 2.7 S 19 30 10 16 - - 0.0
20/02:00pm 16.9 15.1 13.2 79 2.1 S 15 28 8 15 - - 0.0
20/01:48pm 16.5 13.6 13.0 80 1.9 S 20 33 11 18 - - 0.0
20/01:36pm 16.8 14.2 13.3 80 2.0 S 19 32 10 17 - - 0.0
20/01:30pm 16.8 14.1 13.5 81 1.9 S 20 28 11 15 - - 0.0
20/01:15pm 17.0 13.4 12.9 77 2.3 S 24 37 13 20 - - 0.0
20/01:00pm 18.8 15.3 12.3 66 3.6 S 22 35 12 19 - - 0.0
20/12:30pm 19.3 15.2 11.3 60 4.4 S 24 37 13 20 - - 0.0
20/12:00pm 19.5 15.4 11.3 59 4.5 S 24 39 13 21 - - 0.0
20/11:30am 19.1 14.0 10.6 58 4.6 S 28 41 15 22 - - 0.0
20/11:00am 18.8 13.9 10.1 57 4.6 S 26 39 14 21 - - 0.0
20/10:34am 18.7 13.4 10.0 57 4.6 S 28 46 15 25 - - 0.0
20/10:30am 19.2 14.1 10.7 58 4.6 S 28 43 15 23 - - 0.0
20/10:00am 18.7 13.2 10.5 59 4.4 SSE 30 44 16 24 - - 0.0
20/09:30am 18.2 13.0 10.1 59 4.3 S 28 48 15 26 - - 0.0
20/09:00am 18.2 13.3 11.3 64 3.8 S 28 52 15 28 - - 0.0
20/08:30am 18.4 13.2 11.5 64 3.8 SSE 30 50 16 27 - - 0.0
20/08:05am 18.4 13.4 11.0 62 4.0 SSE 28 50 15 27 - - 0.0
20/08:00am 18.3 12.7 11.4 64 3.8 SSE 32 48 17 26 - - 0.0
20/07:34am 17.8 11.7 11.6 67 3.4 SSE 35 61 19 33 - - 0.0
20/07:30am 17.8 12.1 11.8 68 3.3 SSE 33 50 18 27 - - 0.0
20/07:00am 17.4 12.7 12.1 71 2.9 SSE 28 48 15 26 - - 0.0
20/06:30am 17.6 12.2 12.9 74 2.6 S 33 61 18 33 - - 0.0
20/06:00am 17.9 12.9 14.0 78 2.2 S 33 59 18 32 - - 0.0
20/05:49am 18.2 13.1 14.7 80 2.0 S 35 54 19 29 - - 0.0
20/05:45am 17.9 13.3 14.6 81 1.9 S 32 44 17 24 - - 0.0
20/05:30am 14.4 13.2 12.8 90 0.9 S 11 19 6 10 - - 0.0
20/05:00am 13.3 14.1 12.4 94 0.5 CALM 0 0 0 0 - - 0.0
20/04:30am 13.1 13.8 12.2 94 0.5 CALM 0 0 0 0 - - 0.0
20/04:00am 13.3 14.0 12.2 93 0.6 CALM 0 0 0 0 - - 0.0
20/03:30am 13.2 13.8 11.8 91 0.7 CALM 0 0 0 0 - - 0.0
20/03:00am 13.7 14.5 12.6 93 0.6 CALM 0 0 0 0 - - 0.0
20/02:30am 14.1 14.9 12.7 91 0.8 CALM 0 0 0 0 - - 0.0
20/02:00am 14.1 14.9 12.5 90 0.9 CALM 0 0 0 0 - - 0.0
20/01:30am 14.2 15.0 12.4 89 1.0 CALM 0 0 0 0 - - 0.0
20/01:00am 14.3 14.9 11.8 85 1.3 CALM 0 0 0 0 - - 0.0
20/12:30am 14.7 15.5 12.7 88 1.1 CALM 0 0 0 0 - - 0.0
20/12:00am 14.9 15.4 11.7 81 1.7 NNW 0 0 0 0 - - 0.0
 
Date/Time
EDT
Tmp

°C
App
Tmp
°C
Dew
Point
°C
Rel
Hum
%
Delta-T

°C
Wind Press
QNH
hPa
Press
MSL
hPa
Rain
since
9 am
mm
Dir
 
Spd
km/h
Gust
km/h
Spd
kts
Gust
kts
19/11:30pm 15.8 16.4 11.8 77 2.2 CALM 0 0 0 0 - - 0.0
19/11:00pm 16.6 16.4 11.7 73 2.7 NNW 4 7 2 4 - - 0.0
19/10:30pm 17.8 17.3 12.0 69 3.2 N 6 9 3 5 - - 0.0
19/10:00pm 18.3 17.6 12.1 67 3.4 N 7 11 4 6 - - 0.0
19/09:30pm 18.7 17.2 12.0 65 3.7 NNE 11 17 6 9 - - 0.0
19/09:00pm 18.8 17.4 12.1 65 3.7 NNE 11 22 6 12 - - 0.0
19/08:30pm 19.1 18.0 12.1 64 3.9 NNE 9 15 5 8 - - 0.0
19/08:00pm 19.2 17.8 12.2 64 3.9 NNE 11 22 6 12 - - 0.0
19/07:30pm 19.6 17.3 11.9 61 4.3 NNE 15 28 8 15 - - 0.0
19/07:00pm 20.3 17.5 11.2 56 5.0 NNE 17 30 9 16 - - 0.0
19/06:30pm 21.1 18.2 10.9 52 5.6 NNE 17 26 9 14 - - 0.0
19/06:00pm 22.0 19.0 10.8 49 6.2 NE 17 26 9 14 - - 0.0
19/05:30pm 22.7 19.8 11.1 48 6.4 NE 17 26 9 14 - - 0.0
19/05:00pm 23.1 19.7 10.5 45 6.9 NE 19 30 10 16 - - 0.0
19/04:30pm 24.0 21.5 11.0 44 7.3 NE 15 22 8 12 - - 0.0
19/04:00pm 24.3 21.2 11.6 45 7.2 NE 19 30 10 16 - - 0.0
19/03:30pm 24.6 21.6 11.9 45 7.2 NE 19 30 10 16 - - 0.0
19/03:00pm 25.3 23.1 13.2 47 7.1 NE 17 22 9 12 - - 0.0
19/02:30pm 24.6 21.4 11.9 45 7.2 E 20 30 11 16 - - 0.0
19/02:00pm 25.1 22.2 13.0 47 7.0 E 20 26 11 14 - - 0.0
19/01:30pm 25.3 22.9 11.5 42 7.8 NNE 15 19 8 10 - - 0.0
19/01:00pm 25.3 22.4 9.6 37 8.6 NNE 15 22 8 12 - - 0.0
19/12:30pm 24.3 21.7 9.5 39 8.1 NNE 13 20 7 11 - - 0.0
19/12:00pm 23.8 20.6 8.6 38 8.1 N 15 22 8 12 - - 0.0
19/11:30am 22.9 19.8 9.0 41 7.4 N 15 22 8 12 - - 0.0
19/11:00am 22.0 20.1 10.5 48 6.3 N 11 19 6 10 - - 0.0
19/10:30am 20.6 17.9 8.9 47 6.2 N 13 17 7 9 - - 0.0
19/10:00am 19.3 17.6 9.8 54 5.1 NNW 9 17 5 9 - - 0.0
19/09:30am 17.9 16.3 10.3 61 4.1 NW 9 15 5 8 - - 0.0
19/09:00am 16.6 15.1 10.7 68 3.1 NW 9 13 5 7 - - 0.0
19/08:30am 15.2 14.1 10.0 71 2.7 NW 6 13 3 7 - - 0.0
19/08:00am 13.6 12.2 9.5 76 2.1 WNW 7 11 4 6 - - 0.0
19/07:30am 12.1 11.0 9.8 86 1.2 W 6 9 3 5 - - 0.0
19/07:00am 10.6 10.7 10.1 97 0.3 CALM 0 0 0 0 - - 0.0
19/06:30am 9.2 8.9 8.6 96 0.3 CALM 0 0 0 0 - - 0.0
19/06:00am 9.4 9.1 8.8 96 0.3 CALM 0 0 0 0 - - 0.0
19/05:30am 9.3 9.0 8.5 95 0.4 CALM 0 0 0 0 - - 0.0
19/05:00am 9.1 7.6 8.5 96 0.3 N 6 7 3 4 - - 0.0
19/04:30am 9.7 9.5 9.1 96 0.3 CALM 0 0 0 0 - - 0.0
19/04:00am 10.0 9.8 9.2 95 0.4 CALM 0 0 0 0 - - 0.0
19/03:30am 9.9 9.7 9.0 94 0.4 CALM 0 0 0 0 - - 0.0
19/03:00am 10.1 9.9 9.0 93 0.5 CALM 0 0 0 0 - - 0.0
19/02:30am 10.2 10.1 9.3 94 0.4 CALM 0 0 0 0 - - 0.0
19/02:00am 10.3 10.1 9.1 92 0.6 CALM 0 0 0 0 - - 0.0
19/01:30am 10.5 10.3 8.9 90 0.8 CALM 0 0 0 0 - - 0.0
19/01:00am 11.0 10.9 9.4 90 0.8 CALM 0 0 0 0 - - 0.0
19/12:30am 10.9 10.8 9.5 91 0.7 CALM 0 0 0 0 - - 0.0
19/12:00am 11.2 11.0 8.9 86 1.1 CALM 0 0 0 0 - - 0.0
 
Date/Time
EDT
Tmp

°C
App
Tmp
°C
Dew
Point
°C
Rel
Hum
%
Delta-T

°C
Wind Press
QNH
hPa
Press
MSL
hPa
Rain
since
9 am
mm
Dir
 
Spd
km/h
Gust
km/h
Spd
kts
Gust
kts
18/11:30pm 11.4 11.1 8.6 83 1.4 CALM 0 0 0 0 - - 0.0
18/11:00pm 12.1 11.9 8.9 81 1.6 CALM 0 0 0 0 - - 0.0
18/10:30pm 13.0 12.9 9.3 78 1.9 CALM 0 0 0 0 - - 0.0
18/10:00pm 13.5 12.8 8.6 72 2.5 N 2 7 1 4 - - 0.0
18/09:30pm 14.9 14.5 8.4 65 3.3 CALM 0 2 0 1 - - 0.0
18/09:00pm 16.2 14.1 8.4 60 4.0 NE 9 15 5 8 - - 0.0
18/08:30pm 16.2 14.2 8.7 61 3.8 NE 9 17 5 9 - - 0.0
18/08:00pm 16.2 14.1 8.4 60 4.0 NE 9 15 5 8 - - 0.0
18/07:30pm 16.5 13.6 8.0 57 4.3 ENE 13 22 7 12 - - 0.0
18/07:00pm 16.8 13.3 7.4 54 4.7 ENE 15 22 8 12 - - 0.0
18/06:30pm 17.6 13.6 6.8 49 5.4 NE 17 24 9 13 - - 0.0
18/06:00pm 18.0 13.8 7.4 50 5.3 ENE 19 28 10 15 - - 0.0
18/05:30pm 18.5 14.2 7.0 47 5.8 NNE 19 22 10 12 - - 0.0
18/05:00pm 19.2 15.3 7.3 46 6.0 ENE 17 20 9 11 - - 0.0
18/04:30pm 19.2 15.5 7.9 48 5.8 ENE 17 28 9 15 - - 0.0
18/04:00pm 19.6 15.4 8.3 48 5.9 E 20 28 11 15 - - 0.0
18/03:30pm 20.2 16.9 9.7 51 5.6 E 17 22 9 12 - - 0.0
18/03:00pm 19.9 17.3 9.5 51 5.5 E 13 22 7 12 - - 0.0
18/02:30pm 18.8 15.6 8.5 51 5.3 E 15 24 8 13 - - 0.0
18/02:00pm 18.7 15.8 8.1 50 5.4 E 13 26 7 14 - - 0.0
18/01:30pm 18.4 15.2 8.4 52 5.2 E 15 24 8 13 - - 0.0
18/01:00pm 18.7 15.4 8.1 50 5.4 ESE 15 22 8 12 - - 0.0
18/12:30pm 20.0 18.1 9.0 49 5.8 E 9 17 5 9 - - 0.0
18/12:00pm 19.3 18.6 8.6 50 5.6 NNW 2 7 1 4 - - 0.0
18/11:30am 18.5 16.5 8.7 53 5.1 SE 9 15 5 8 - - 0.0
18/11:00am 18.1 16.6 8.4 53 5.0 SSE 6 9 3 5 - - 0.0
18/10:30am 17.5 17.4 9.4 59 4.2 CALM 0 6 0 3 - - 0.0
18/10:00am 16.6 15.7 9.1 61 3.9 SW 4 7 2 4 - - 0.0
18/09:30am 15.5 14.5 8.7 64 3.5 WNW 4 7 2 4 - - 0.0
18/09:00am 14.3 12.9 8.7 69 2.8 NW 6 9 3 5 - - 0.0
18/08:30am 13.3 11.8 8.4 72 2.4 NW 6 7 3 4 - - 0.0
18/08:00am 12.4 10.8 7.9 74 2.2 NW 6 7 3 4 - - 0.0
18/07:30am 11.8 10.2 8.1 78 1.8 NNW 6 9 3 5 - - 0.0
18/07:00am 11.4 9.8 8.1 80 1.6 NW 6 9 3 5 - - 0.0
18/06:30am 10.8 10.3 8.0 83 1.4 CALM 0 0 0 0 - - 0.0
18/06:00am 10.4 9.8 7.5 82 1.4 CALM 0 0 0 0 - - 0.0
18/05:30am 11.0 9.7 7.5 79 1.7 WNW 4 7 2 4 - - 0.0
18/05:00am 11.4 9.7 7.7 78 1.8 NNW 6 7 3 4 - - 0.0
18/04:30am 11.7 10.0 7.6 76 2.0 WNW 6 7 3 4 - - 0.0
18/04:00am 12.0 10.4 7.9 76 2.0 NW 6 7 3 4 - - 0.0
18/03:30am 12.1 10.5 8.2 77 1.9 NW 6 7 3 4 - - 0.0
18/03:00am 12.1 11.2 7.8 75 2.1 W 2 6 1 3 - - 0.0
18/02:30am 12.0 11.5 7.7 75 2.1 CALM 0 0 0 0 - - 0.0
18/02:00am 12.1 10.4 7.6 74 2.2 WNW 6 9 3 5 - - 0.0
18/01:30am 12.3 10.6 7.6 73 2.3 W 6 7 3 4 - - 0.0
18/01:00am 12.9 11.3 7.8 71 2.5 W 6 7 3 4 - - 0.0
18/12:30am 13.2 11.3 7.6 69 2.7 W 7 13 4 7 - - 0.0
18/12:00am 13.1 12.6 7.8 70 2.6 CALM 0 7 0 4 - - 0.0

Latest Capital City Observations: Canberra | Sydney | Melbourne | Brisbane | Adelaide | Perth | Hobart | Darwin

Other Formats:

Comma delimited format used in spreadsheet applications
http://www.bom.gov.au/fwo/IDN60901/IDN60901.94766.axf

JavaScript Object Notation format (JSON) in row-major order
http://www.bom.gov.au/fwo/IDN60901/IDN60901.94766.json